Time;durP1;ratioP1;P1;durP2;ratioP2;P2;SDS_P1;SDS_P2;PMS_P1;PMS_P2;Temp;Humidity;BMP_temperature;BMP_pressure;BME280_temperature;BME280_humidity;BME280_pressure;Samples;Min_cycle;Max_cycle;Signal;HPM_P1;HPM_P2
2023/01/16 00:01:07;;;;;;;5.75;0.80;;;4.90;99.90;;;;;;12433533;28;20053;-79
2023/01/16 00:07:09;;;;;;;8.50;1.90;;;4.80;99.90;;;;;;12419040;28;20042;-80
2023/01/16 00:13:12;;;;;;;4.78;0.82;;;4.90;99.90;;;;;;12438192;28;20061;-80
2023/01/16 00:19:14;;;;;;;8.40;0.90;;;4.80;99.90;;;;;;12445015;28;20052;-80
2023/01/16 00:25:16;;;;;;;5.90;0.80;;;4.80;99.90;;;;;;12435424;28;20049;-80
2023/01/16 00:31:18;;;;;;;3.75;0.60;;;4.80;99.90;;;;;;12433425;28;20046;-80
2023/01/16 00:37:20;;;;;;;2.40;0.60;;;5.00;99.90;;;;;;12435454;28;20391;-79
2023/01/16 00:43:22;;;;;;;2.35;0.60;;;4.90;99.90;;;;;;12431656;28;20043;-80
2023/01/16 00:49:24;;;;;;;4.72;0.70;;;4.80;99.90;;;;;;12412485;28;20132;-78
2023/01/16 00:55:26;;;;;;;3.42;0.50;;;4.70;99.90;;;;;;12427038;28;20092;-80
2023/01/16 01:01:28;;;;;;;1.67;0.50;;;4.60;99.90;;;;;;12423392;28;20045;-79
2023/01/16 01:07:30;;;;;;;2.92;0.55;;;4.50;99.90;;;;;;12445781;28;20053;-80
2023/01/16 01:13:32;;;;;;;4.80;0.70;;;4.60;99.90;;;;;;12448957;28;20164;-80
2023/01/16 01:19:34;;;;;;;2.65;0.70;;;4.50;99.90;;;;;;12436634;28;20180;-79
2023/01/16 01:25:38;;;;;;;3.13;0.50;;;4.50;99.90;;;;;;12424390;28;20129;-80
2023/01/16 01:31:40;;;;;;;3.65;0.50;;;4.50;99.90;;;;;;12435247;28;20045;-79
2023/01/16 01:37:42;;;;;;;3.00;0.55;;;4.50;99.90;;;;;;12442267;28;20061;-79
2023/01/16 01:43:44;;;;;;;4.43;0.70;;;4.50;99.90;;;;;;12419621;28;20049;-79
2023/01/16 01:49:47;;;;;;;3.47;0.88;;;4.50;99.90;;;;;;12437282;28;20043;-79
2023/01/16 01:55:50;;;;;;;5.85;1.15;;;4.50;99.90;;;;;;12444386;28;20038;-80
2023/01/16 02:01:53;;;;;;;4.53;0.70;;;4.50;99.90;;;;;;12442526;28;20132;-81
2023/01/16 02:07:57;;;;;;;1.30;0.55;;;4.60;99.90;;;;;;12447712;28;20056;-79
2023/01/16 02:14:06;;;;;;;5.57;1.00;;;4.60;99.90;;;;;;12444030;28;20128;-80
2023/01/16 02:20:17;;;;;;;3.55;0.68;;;4.60;99.90;;;;;;12447008;28;20053;-79
2023/01/16 02:26:45;;;;;;;4.30;0.45;;;4.60;99.90;;;;;;12440135;28;20411;-79
2023/01/16 02:32:53;;;;;;;3.50;0.80;;;4.50;99.90;;;;;;12437464;28;20046;-80
2023/01/16 02:39:05;;;;;;;2.47;0.55;;;4.40;99.90;;;;;;12439576;28;20658;-80
2023/01/16 02:45:32;;;;;;;4.47;0.50;;;4.30;99.90;;;;;;12442141;28;20046;-80
2023/01/16 02:51:55;;;;;;;3.85;0.68;;;4.20;99.90;;;;;;12432747;28;20046;-78
2023/01/16 02:58:04;;;;;;;2.58;0.50;;;4.20;99.90;;;;;;12443851;28;20041;-78
2023/01/16 03:04:40;;;;;;;1.40;0.30;;;4.20;99.90;;;;;;12451445;28;20038;-79
2023/01/16 03:11:01;;;;;;;3.15;0.70;;;4.20;99.90;;;;;;12438813;28;20508;-77
2023/01/16 03:17:30;;;;;;;2.85;0.50;;;4.10;99.90;;;;;;12442812;28;20061;-80
2023/01/16 03:23:48;;;;;;;2.70;0.50;;;4.10;99.90;;;;;;12440251;28;20042;-78
2023/01/16 03:30:07;;;;;;;5.68;1.10;;;4.00;99.90;;;;;;12433964;28;20140;-79
2023/01/16 03:36:15;;;;;;;2.55;0.60;;;4.00;99.90;;;;;;12434770;28;20045;-79
2023/01/16 03:42:23;;;;;;;3.45;0.60;;;3.90;99.90;;;;;;12427991;28;20046;-79
2023/01/16 03:48:47;;;;;;;3.28;0.52;;;3.80;99.90;;;;;;12437758;28;20077;-79
2023/01/16 03:55:26;;;;;;;5.85;0.68;;;3.70;99.90;;;;;;12447579;28;20056;-79
2023/01/16 04:01:49;;;;;;;3.08;0.50;;;3.60;99.90;;;;;;12432395;28;20049;-78
2023/01/16 04:07:57;;;;;;;2.53;0.60;;;3.60;99.90;;;;;;12438292;28;20054;-78
2023/01/16 04:14:01;;;;;;;4.25;0.60;;;3.50;99.90;;;;;;12440282;28;20124;-79
2023/01/16 04:20:05;;;;;;;3.72;0.50;;;3.50;99.90;;;;;;12434209;28;20132;-78
2023/01/16 04:26:07;;;;;;;3.35;0.70;;;3.50;99.90;;;;;;12421151;28;20519;-78
2023/01/16 04:32:09;;;;;;;3.13;0.50;;;3.50;99.90;;;;;;12430502;28;20184;-78
2023/01/16 04:38:12;;;;;;;3.15;0.75;;;3.50;99.90;;;;;;12435375;28;20476;-79
2023/01/16 04:44:13;;;;;;;2.92;0.65;;;3.50;99.90;;;;;;12422749;28;20084;-78
2023/01/16 04:50:16;;;;;;;3.00;0.65;;;3.60;99.90;;;;;;12425685;28;20046;-78
2023/01/16 04:56:18;;;;;;;4.68;0.70;;;3.60;99.90;;;;;;12419643;28;20092;-78
2023/01/16 05:02:20;;;;;;;2.22;0.40;;;3.70;99.90;;;;;;12394225;28;20049;-78
2023/01/16 05:08:25;;;;;;;6.25;0.85;;;3.70;99.90;;;;;;12429501;28;20041;-79
2023/01/16 05:14:27;;;;;;;1.70;0.55;;;3.80;99.90;;;;;;12428985;28;20046;-78
2023/01/16 05:20:29;;;;;;;3.10;0.60;;;3.90;99.90;;;;;;12436614;28;20494;-78
2023/01/16 05:26:31;;;;;;;2.45;0.47;;;4.00;99.90;;;;;;12438489;28;20050;-77
2023/01/16 05:32:33;;;;;;;2.20;0.52;;;4.00;99.90;;;;;;12441875;28;20065;-78
2023/01/16 05:38:35;;;;;;;1.88;0.60;;;4.00;99.90;;;;;;12425223;28;20060;-78
2023/01/16 05:44:37;;;;;;;4.95;0.80;;;3.80;99.90;;;;;;12440239;28;20133;-78
2023/01/16 05:50:39;;;;;;;4.35;0.95;;;3.70;99.90;;;;;;12444552;28;20041;-78
2023/01/16 05:56:42;;;;;;;2.83;0.93;;;3.50;99.90;;;;;;12449959;28;20061;-78
2023/01/16 06:02:46;;;;;;;3.45;0.65;;;3.40;99.90;;;;;;12435717;28;20569;-79
2023/01/16 06:08:48;;;;;;;3.80;0.83;;;3.40;99.90;;;;;;12442921;28;20042;-79
2023/01/16 06:14:50;;;;;;;1.88;0.55;;;3.50;99.90;;;;;;12446630;28;20676;-78
2023/01/16 06:20:52;;;;;;;3.58;0.70;;;3.50;99.90;;;;;;12446301;28;20065;-79
2023/01/16 06:26:54;;;;;;;2.10;0.80;;;3.60;99.90;;;;;;12430450;28;20049;-78
2023/01/16 06:32:56;;;;;;;3.75;0.63;;;3.60;99.90;;;;;;12433545;28;20053;-79
2023/01/16 06:38:57;;;;;;;1.42;0.50;;;3.70;99.90;;;;;;12429989;28;20890;-79
2023/01/16 06:44:59;;;;;;;1.98;0.50;;;3.80;99.90;;;;;;12420451;28;20046;-78
2023/01/16 06:51:01;;;;;;;4.10;0.50;;;3.80;99.90;;;;;;12427550;28;21221;-78
2023/01/16 06:57:03;;;;;;;2.22;0.70;;;3.80;99.90;;;;;;12429792;28;20506;-78
2023/01/16 07:03:05;;;;;;;1.02;0.43;;;3.70;99.90;;;;;;12430575;28;20053;-78
2023/01/16 07:09:07;;;;;;;2.13;0.70;;;3.60;99.90;;;;;;12436987;28;20490;-78
2023/01/16 07:27:52;;;;;;;3.20;0.82;;;3.60;99.90;;;;;;12437715;28;20418;-79
2023/01/16 07:33:54;;;;;;;7.22;1.00;;;3.70;99.90;;;;;;12415575;28;20050;-79
2023/01/16 07:39:56;;;;;;;3.45;0.90;;;3.70;99.90;;;;;;12419952;28;20502;-79
2023/01/16 07:45:58;;;;;;;2.80;1.02;;;3.80;99.90;;;;;;12420219;28;20522;-79
2023/01/16 07:52:00;;;;;;;2.42;0.93;;;3.80;99.90;;;;;;12423794;28;20050;-79
2023/01/16 07:58:02;;;;;;;3.47;1.00;;;3.80;99.90;;;;;;12438028;28;20058;-79
2023/01/16 08:04:03;;;;;;;4.97;1.20;;;3.80;99.90;;;;;;12443312;28;20046;-78
2023/01/16 08:10:06;;;;;;;2.67;1.08;;;3.80;99.90;;;;;;12434912;28;20182;-78
2023/01/16 08:16:08;;;;;;;4.47;1.30;;;3.90;99.90;;;;;;12393286;28;20050;-80
2023/01/16 08:22:10;;;;;;;5.60;1.40;;;3.90;99.90;;;;;;12438970;28;20059;-80
2023/01/16 08:28:11;;;;;;;3.22;1.05;;;3.90;99.90;;;;;;12437586;28;20129;-79
2023/01/16 08:34:14;;;;;;;3.95;1.30;;;4.00;99.90;;;;;;12436417;28;20062;-80
2023/01/16 08:40:16;;;;;;;3.85;1.42;;;4.10;99.90;;;;;;12427238;28;20073;-79
2023/01/16 08:52:43;;;;;;;3.20;1.07;;;4.20;99.90;;;;;;12421317;28;20049;-79
2023/01/16 08:58:45;;;;;;;2.97;1.10;;;4.30;99.90;;;;;;12432152;28;20117;-79
2023/01/16 09:04:48;;;;;;;3.50;1.00;;;4.40;99.90;;;;;;12424102;28;20091;-79
2023/01/16 09:17:10;;;;;;;5.55;1.30;;;4.50;99.90;;;;;;12435742;28;20068;-79
2023/01/16 09:23:12;;;;;;;5.57;1.17;;;4.50;99.90;;;;;;12431960;28;20077;-80
2023/01/16 09:29:14;;;;;;;3.40;0.88;;;4.60;99.90;;;;;;12441949;28;20430;-79
2023/01/16 09:35:16;;;;;;;2.70;0.90;;;4.70;99.90;;;;;;12413926;28;20092;-79
2023/01/16 09:47:45;;;;;;;3.35;0.70;;;4.70;99.90;;;;;;12421682;28;20556;-80
2023/01/16 10:00:22;;;;;;;3.13;0.82;;;4.80;99.90;;;;;;12416945;28;20046;-80
2023/01/16 10:06:29;;;;;;;4.70;0.90;;;4.90;99.90;;;;;;12412876;28;20519;-79
2023/01/16 10:12:34;;;;;;;2.55;0.75;;;4.90;99.90;;;;;;12420352;28;20487;-78
2023/01/16 10:18:57;;;;;;;5.60;1.10;;;5.00;99.90;;;;;;12431580;28;20507;-79
2023/01/16 10:25:08;;;;;;;2.92;0.80;;;5.00;99.90;;;;;;12411774;28;20039;-82
2023/01/16 10:31:18;;;;;;;1.75;0.65;;;5.10;99.90;;;;;;12430100;28;20046;-79
2023/01/16 10:37:23;;;;;;;4.40;0.98;;;5.10;99.90;;;;;;12431879;28;20050;-80
2023/01/16 10:49:59;;;;;;;5.60;0.80;;;5.00;99.90;;;;;;12427042;28;20046;-79
2023/01/16 10:56:03;;;;;;;4.30;0.57;;;4.90;99.90;;;;;;12353604;28;20047;-81
2023/01/16 11:02:24;;;;;;;3.75;0.70;;;4.90;99.90;;;;;;12382913;28;20506;-81
2023/01/16 11:08:26;;;;;;;3.40;1.02;;;5.00;99.90;;;;;;12390047;28;20053;-79
2023/01/16 11:20:53;;;;;;;2.95;0.60;;;5.10;99.90;;;;;;12401401;28;20482;-78
2023/01/16 11:26:57;;;;;;;2.88;0.65;;;5.20;99.90;;;;;;12398460;28;20173;-79
2023/01/16 11:32:59;;;;;;;4.72;0.70;;;5.30;99.90;;;;;;12402431;28;20043;-80
2023/01/16 11:39:02;;;;;;;4.00;0.77;;;5.50;99.90;;;;;;12415613;28;20039;-78
2023/01/16 11:51:37;;;;;;;1.70;0.47;;;5.60;99.90;;;;;;12381533;28;20085;-78
2023/01/16 11:58:03;;;;;;;1.42;0.40;;;5.80;99.90;;;;;;12396616;28;20104;-78
2023/01/16 12:04:24;;;;;;;2.63;0.50;;;5.90;99.90;;;;;;12400529;28;20046;-79
2023/01/16 12:10:43;;;;;;;2.33;0.70;;;5.80;99.90;;;;;;12401638;28;20050;-78
2023/01/16 12:17:04;;;;;;;2.58;0.32;;;5.80;99.90;;;;;;12391946;28;20050;-78
2023/01/16 12:23:25;;;;;;;1.45;0.40;;;5.80;99.90;;;;;;12405617;28;20042;-79
2023/01/16 12:29:41;;;;;;;3.25;0.47;;;5.70;99.90;;;;;;12392541;28;20061;-79
2023/01/16 12:36:05;;;;;;;2.50;0.43;;;5.60;99.90;;;;;;12422165;28;20053;-79
2023/01/16 12:49:04;;;;;;;2.50;0.32;;;5.20;99.90;;;;;;12431014;28;20379;-80
2023/01/16 12:55:23;;;;;;;1.95;0.28;;;5.00;99.90;;;;;;12426869;28;20108;-80
2023/01/16 13:01:39;;;;;;;0.50;0.20;;;4.90;99.90;;;;;;12422148;28;20262;-79
2023/01/16 13:07:49;;;;;;;1.27;0.43;;;4.80;99.90;;;;;;12425642;28;20050;-80
2023/01/16 13:13:57;;;;;;;1.45;0.30;;;4.80;99.90;;;;;;12431530;28;20188;-80
2023/01/16 13:20:03;;;;;;;2.17;0.63;;;4.80;99.90;;;;;;12432376;28;20054;-79
2023/01/16 13:26:10;;;;;;;0.98;0.30;;;4.80;99.90;;;;;;12436739;28;20050;-79
2023/01/16 13:32:30;;;;;;;1.27;0.30;;;4.80;99.90;;;;;;12444236;28;20387;-79
2023/01/16 13:38:55;;;;;;;2.55;0.52;;;5.00;99.90;;;;;;12428544;28;20062;-80
2023/01/16 13:51:25;;;;;;;1.23;0.43;;;5.10;99.90;;;;;;12430883;28;20053;-79
2023/01/16 13:57:28;;;;;;;3.38;0.30;;;5.10;99.90;;;;;;12431393;28;20494;-79
2023/01/16 14:03:35;;;;;;;1.02;0.30;;;5.10;99.90;;;;;;12434820;28;20137;-79
2023/01/16 14:10:10;;;;;;;1.75;0.30;;;5.10;99.90;;;;;;12428580;28;20046;-80
2023/01/16 14:16:30;;;;;;;1.27;0.40;;;5.00;99.90;;;;;;12421294;28;20069;-80
2023/01/16 14:29:12;;;;;;;1.95;0.20;;;4.90;99.90;;;;;;12440236;28;20049;-80
2023/01/16 14:35:30;;;;;;;2.13;0.45;;;4.80;99.90;;;;;;12428422;28;20088;-80
2023/01/16 15:07:46;;;;;;;1.40;0.40;;;4.50;99.90;;;;;;12438661;28;20141;-80
2023/01/16 15:36:22;;;;;;;0.90;0.40;;;4.40;99.90;;;;;;14942518;23;20064;-83
2023/01/16 15:49:11;;;;;;;1.02;0.40;;;4.40;99.90;;;;;;14984957;23;20086;-87
2023/01/16 15:55:38;;;;;;;1.98;0.50;;;4.40;99.90;;;;;;14965599;23;20034;-86
2023/01/16 16:01:40;;;;;;;2.45;0.57;;;4.40;99.90;;;;;;14965890;23;20456;-86
2023/01/16 16:07:42;;;;;;;4.97;0.77;;;4.60;99.90;;;;;;14955256;23;20162;-86
2023/01/16 16:13:44;;;;;;;1.73;0.60;;;4.60;99.90;;;;;;14963746;23;20465;-87
2023/01/16 16:19:46;;;;;;;1.70;0.63;;;4.60;99.90;;;;;;14987237;23;20406;-86
2023/01/16 16:25:53;;;;;;;1.00;0.30;;;4.70;99.90;;;;;;14962877;23;20024;-86
2023/01/16 16:32:02;;;;;;;1.05;0.50;;;4.70;99.90;;;;;;14942970;23;20020;-87
2023/01/16 16:38:04;;;;;;;1.42;0.50;;;4.70;99.90;;;;;;14948692;23;20117;-87
2023/01/16 16:44:08;;;;;;;1.00;0.45;;;4.70;99.90;;;;;;14951328;23;20139;-86
2023/01/16 16:50:33;;;;;;;1.13;0.60;;;4.60;99.90;;;;;;14939441;23;20183;-86
2023/01/16 16:56:39;;;;;;;1.10;0.40;;;4.60;99.90;;;;;;14952964;23;20030;-86
2023/01/16 17:02:41;;;;;;;1.45;0.60;;;4.60;99.90;;;;;;15075909;23;20026;-37
2023/01/16 17:08:43;;;;;;;1.67;0.68;;;4.60;99.90;;;;;;15166450;23;20383;-39
2023/01/16 17:14:45;;;;;;;1.70;0.70;;;4.60;99.90;;;;;;15183193;23;20026;-38
2023/01/16 17:20:47;;;;;;;1.30;0.60;;;4.60;99.90;;;;;;15193117;23;20022;-38
2023/01/16 17:26:49;;;;;;;2.67;0.70;;;4.60;99.90;;;;;;15195585;23;20022;-38
2023/01/16 17:32:58;;;;;;;2.45;0.65;;;4.50;99.90;;;;;;15192992;23;20036;-39
2023/01/16 17:39:00;;;;;;;1.15;0.50;;;4.40;99.90;;;;;;15192463;23;20024;-38
2023/01/16 17:51:34;;;;;;;2.05;0.60;;;4.50;99.90;;;;;;15195049;23;20383;-38
2023/01/16 17:57:36;;;;;;;1.80;0.70;;;4.50;99.90;;;;;;15191337;23;20034;-38
2023/01/16 18:03:38;;;;;;;1.67;0.40;;;4.60;99.90;;;;;;15190552;23;20081;-38
2023/01/16 18:09:40;;;;;;;0.98;0.50;;;4.60;99.90;;;;;;15194811;23;20040;-38
2023/01/16 18:22:05;;;;;;;0.63;0.40;;;4.70;99.90;;;;;;15195240;23;20022;-38
2023/01/16 18:28:10;;;;;;;1.17;0.50;;;4.70;99.90;;;;;;15190225;23;20022;-38
2023/01/16 18:34:15;;;;;;;1.17;0.50;;;4.70;99.90;;;;;;15174356;23;20033;-38
2023/01/16 19:06:15;;;;;;;2.05;0.80;;;4.00;99.90;;;;;;15175944;23;20022;-38
2023/01/16 19:12:22;;;;;;;1.48;0.55;;;4.10;99.90;;;;;;15194848;23;20028;-38
2023/01/16 19:18:25;;;;;;;2.65;0.70;;;4.20;99.90;;;;;;15197835;23;20097;-37
2023/01/16 19:24:28;;;;;;;3.22;0.80;;;4.20;99.90;;;;;;15169370;23;20033;-36
2023/01/16 19:30:31;;;;;;;1.77;0.77;;;4.30;99.90;;;;;;15196800;23;20142;-37
2023/01/16 19:36:34;;;;;;;3.38;0.82;;;4.20;99.90;;;;;;15195033;23;20125;-36
2023/01/16 19:49:15;;;;;;;1.17;0.68;;;4.20;99.90;;;;;;15194681;23;20025;-37
2023/01/16 19:55:18;;;;;;;1.58;0.70;;;4.20;99.90;;;;;;15192464;23;20126;-37
2023/01/16 20:01:20;;;;;;;2.00;0.82;;;4.20;99.90;;;;;;15196230;23;20331;-36
2023/01/16 20:07:22;;;;;;;2.25;0.88;;;4.30;99.90;;;;;;15175837;23;20037;-39
2023/01/16 20:13:24;;;;;;;1.55;0.82;;;4.30;99.90;;;;;;15199993;23;20121;-36
2023/01/16 20:19:27;;;;;;;2.58;0.70;;;4.30;99.90;;;;;;15200930;23;20077;-37
2023/01/16 20:25:29;;;;;;;1.70;0.80;;;4.20;99.90;;;;;;15201122;23;20029;-37
2023/01/16 20:31:32;;;;;;;1.55;0.93;;;4.30;99.90;;;;;;15199225;23;20498;-36
2023/01/16 20:37:36;;;;;;;1.05;0.70;;;4.30;99.90;;;;;;15199501;23;20339;-38
2023/01/16 20:50:04;;;;;;;2.27;0.83;;;4.30;99.90;;;;;;15200802;23;20354;-37
2023/01/16 20:56:08;;;;;;;1.05;0.52;;;4.30;99.90;;;;;;15175352;23;20026;-37
2023/01/16 21:02:13;;;;;;;1.08;0.60;;;4.40;99.90;;;;;;15195692;23;20438;-37
2023/01/16 21:08:15;;;;;;;4.53;0.70;;;4.30;99.90;;;;;;15199297;23;20022;-37
2023/01/16 21:14:18;;;;;;;1.52;0.60;;;4.20;99.90;;;;;;15195062;23;20463;-37
2023/01/16 21:26:43;;;;;;;0.65;0.52;;;4.10;99.90;;;;;;15199137;23;20030;-37
2023/01/16 21:32:45;;;;;;;1.63;0.77;;;4.10;99.90;;;;;;15197001;23;20092;-38
2023/01/16 21:38:47;;;;;;;1.45;0.80;;;4.00;99.90;;;;;;15198380;23;20058;-37
2023/01/16 21:51:12;;;;;;;3.10;1.60;;;4.10;99.90;;;;;;15197684;23;20462;-38
2023/01/16 21:57:15;;;;;;;2.55;1.73;;;4.00;99.90;;;;;;15197535;23;20033;-37
2023/01/16 22:03:17;;;;;;;4.40;2.42;;;3.90;99.90;;;;;;15148259;23;20032;-37
2023/01/16 22:09:20;;;;;;;4.57;2.67;;;3.80;99.90;;;;;;15195748;23;20310;-37
2023/01/16 22:17:42;;;;;;;5.13;3.63;;;3.80;99.90;;;;;;15195592;23;20057;-37
2023/01/16 22:22:00;;;;;;;5.85;4.13;;;3.90;99.90;;;;;;15196205;23;20030;-37
2023/01/16 22:28:18;;;;;;;6.50;4.45;;;3.90;99.90;;;;;;15195670;23;20144;-38
2023/01/16 22:34:20;;;;;;;7.88;5.20;;;3.90;99.90;;;;;;15169517;23;20037;-37
2023/01/16 22:40:23;;;;;;;8.55;5.50;;;3.90;99.90;;;;;;15195475;23;20749;-38
2023/01/16 22:46:25;;;;;;;9.27;5.85;;;3.90;99.90;;;;;;15193095;23;20022;-37
2023/01/16 22:52:28;;;;;;;9.68;6.38;;;3.90;99.90;;;;;;15196967;23;20025;-37
2023/01/16 22:58:31;;;;;;;10.15;6.53;;;4.00;99.90;;;;;;15198154;23;20434;-37
2023/01/16 23:04:37;;;;;;;9.18;6.72;;;4.00;99.90;;;;;;15195240;23;20070;-37
2023/01/16 23:10:40;;;;;;;10.63;7.07;;;4.00;99.90;;;;;;15194847;23;20033;-38
2023/01/16 23:16:48;;;;;;;12.57;9.17;;;4.10;99.90;;;;;;15196443;23;20026;-37
2023/01/16 23:22:57;;;;;;;10.30;8.15;;;4.10;99.90;;;;;;15195089;23;20080;-37
2023/01/16 23:29:06;;;;;;;14.57;8.95;;;4.10;99.90;;;;;;15197065;23;20104;-38
2023/01/16 23:35:09;;;;;;;13.50;8.15;;;4.20;99.90;;;;;;15170137;23;20100;-38
2023/01/16 23:41:14;;;;;;;8.48;5.68;;;4.20;99.90;;;;;;15199868;23;20136;-36
2023/01/16 23:47:20;;;;;;;4.55;3.25;;;4.10;99.90;;;;;;15174606;23;20018;-37
2023/01/16 23:53:30;;;;;;;5.68;3.42;;;4.00;99.90;;;;;;15149849;23;20069;-37
2023/01/16 23:59:32;;;;;;;7.57;4.75;;;4.00;99.90;;;;;;15200338;23;20022;-37
